Time;durP1;ratioP1;P1;durP2;ratioP2;P2;SDS_P1;SDS_P2;PMS_P1;PMS_P2;Temp;Humidity;BMP_temperature;BMP_pressure;BME280_temperature;BME280_humidity;BME280_pressure;Samples;Min_cycle;Max_cycle;Signal;HPM_P1;HPM_P2
2022/11/13 00:01:16;;;;;;;;;26.00;23.00;;;;;;;;114851;1206;25402;-69
2022/11/13 00:03:45;;;;;;;;;26.00;23.00;;;;;;;;114922;1196;25650;-70
2022/11/13 00:06:15;;;;;;;;;30.00;25.00;;;;;;;;114856;1199;25654;-69
2022/11/13 00:08:44;;;;;;;;;27.00;24.00;;;;;;;;114916;1208;25133;-69
2022/11/13 00:11:17;;;;;;;;;21.00;21.00;;;;;;;;114885;1205;24963;-69
2022/11/13 00:13:46;;;;;;;;;17.00;17.00;;;;;;;;114878;1199;25808;-70
2022/11/13 00:16:17;;;;;;;;;32.00;26.00;;;;;;;;114881;1205;24678;-69
2022/11/13 00:18:46;;;;;;;;;29.50;26.50;;;;;;;;114878;1206;25249;-70
2022/11/13 00:21:17;;;;;;;;;26.00;23.00;;;;;;;;114922;1204;26396;-70
2022/11/13 00:23:46;;;;;;;;;27.00;21.00;;;;;;;;114849;1205;25317;-69
2022/11/13 00:26:19;;;;;;;;;20.50;20.50;;;;;;;;114894;1208;25286;-70
2022/11/13 00:28:56;;;;;;;;;25.00;23.00;;;;;;;;114894;1204;25694;-71
2022/11/13 00:31:25;;;;;;;;;26.00;19.00;;;;;;;;114828;1203;25313;-67
2022/11/13 00:33:54;;;;;;;;;35.00;26.00;;;;;;;;114751;1208;25544;-69
2022/11/13 00:36:42;;;;;;;;;23.50;22.00;;;;;;;;114722;1203;25743;-68
2022/11/13 00:39:11;;;;;;;;;23.00;20.00;;;;;;;;114798;1200;25309;-68
2022/11/13 00:41:39;;;;;;;;;27.00;23.00;;;;;;;;114700;1203;25182;-68
2022/11/13 00:44:08;;;;;;;;;23.00;21.67;;;;;;;;114741;1199;25236;-67
2022/11/13 00:46:36;;;;;;;;;29.00;21.00;;;;;;;;114752;1199;24821;-68
2022/11/13 00:49:04;;;;;;;;;23.00;20.50;;;;;;;;114782;1204;24840;-68
2022/11/13 00:51:33;;;;;;;;;26.00;26.00;;;;;;;;114897;1208;25528;-68
2022/11/13 00:54:01;;;;;;;;;18.33;18.33;;;;;;;;114840;1206;25464;-68
2022/11/13 00:56:30;;;;;;;;;27.00;22.00;;;;;;;;114894;1206;25722;-68
2022/11/13 00:58:58;;;;;;;;;26.00;23.00;;;;;;;;114892;1204;25541;-68
2022/11/13 01:01:26;;;;;;;;;23.00;23.00;;;;;;;;114869;1206;25510;-68
2022/11/13 01:03:55;;;;;;;;;28.50;25.50;;;;;;;;114871;1200;25083;-67
2022/11/13 01:06:26;;;;;;;;;24.00;21.00;;;;;;;;114903;1196;25125;-67
2022/11/13 01:08:55;;;;;;;;;21.00;18.00;;;;;;;;114902;1199;25668;-67
2022/11/13 01:11:25;;;;;;;;;22.00;20.50;;;;;;;;114862;1206;25548;-66
2022/11/13 01:13:54;;;;;;;;;26.00;23.00;;;;;;;;114904;1208;25521;-66
2022/11/13 01:16:24;;;;;;;;;25.00;17.00;;;;;;;;114944;1208;24731;-67
2022/11/13 01:18:54;;;;;;;;;24.67;22.67;;;;;;;;114913;1208;25641;-68
2022/11/13 01:21:25;;;;;;;;;20.00;20.00;;;;;;;;114901;1196;25029;-67
2022/11/13 01:23:54;;;;;;;;;27.00;23.00;;;;;;;;114895;1203;24879;-67
2022/11/13 01:26:29;;;;;;;;;26.50;23.50;;;;;;;;114913;1205;24742;-67
2022/11/13 01:28:59;;;;;;;;;25.50;24.50;;;;;;;;114790;1200;24970;-67
2022/11/13 01:31:29;;;;;;;;;22.00;22.00;;;;;;;;114810;1200;25181;-68
2022/11/13 01:33:57;;;;;;;;;24.00;22.00;;;;;;;;114787;1196;25196;-67
2022/11/13 01:36:27;;;;;;;;;28.00;23.00;;;;;;;;114824;1200;26100;-67
2022/11/13 01:38:56;;;;;;;;;26.50;21.50;;;;;;;;114835;1200;25111;-67
2022/11/13 01:41:30;;;;;;;;;20.50;18.50;;;;;;;;114838;1203;24769;-67
2022/11/13 01:43:59;;;;;;;;;23.00;20.00;;;;;;;;114827;1199;25207;-67
2022/11/13 01:46:30;;;;;;;;;19.00;19.00;;;;;;;;114855;1203;24932;-67
2022/11/13 01:49:11;;;;;;;;;24.00;20.00;;;;;;;;114834;1200;25333;-67
2022/11/13 01:51:58;;;;;;;;;27.50;25.00;;;;;;;;114937;1205;25356;-71
2022/11/13 01:54:29;;;;;;;;;19.50;19.50;;;;;;;;114778;1208;25616;-71
2022/11/13 01:56:58;;;;;;;;;24.00;21.00;;;;;;;;114780;1203;25452;-67
2022/11/13 01:59:31;;;;;;;;;24.50;21.00;;;;;;;;114849;1202;25740;-67
2022/11/13 02:02:00;;;;;;;;;21.00;17.50;;;;;;;;114878;1204;24947;-67
2022/11/13 02:04:29;;;;;;;;;23.00;21.00;;;;;;;;114913;1196;25083;-66
2022/11/13 02:07:05;;;;;;;;;20.50;16.50;;;;;;;;114880;1208;25055;-66
2022/11/13 02:09:39;;;;;;;;;22.00;16.00;;;;;;;;114930;1206;25244;-67
2022/11/13 02:12:11;;;;;;;;;20.00;19.00;;;;;;;;114862;1208;25536;-66
2022/11/13 02:14:45;;;;;;;;;21.50;19.00;;;;;;;;114874;1199;25058;-66
2022/11/13 02:17:18;;;;;;;;;24.00;21.00;;;;;;;;114821;1197;25322;-65
2022/11/13 02:19:50;;;;;;;;;23.50;19.00;;;;;;;;114833;1200;25475;-67
2022/11/13 02:22:43;;;;;;;;;20.00;17.00;;;;;;;;114797;1203;24852;-67
2022/11/13 02:25:12;;;;;;;;;24.00;20.00;;;;;;;;114819;1196;24746;-68
2022/11/13 02:27:44;;;;;;;;;19.50;18.50;;;;;;;;114822;1202;25711;-73
2022/11/13 02:30:15;;;;;;;;;17.50;17.00;;;;;;;;114828;1200;25438;-71
2022/11/13 02:32:53;;;;;;;;;21.50;18.50;;;;;;;;114810;1204;25615;-70
2022/11/13 02:35:31;;;;;;;;;17.00;16.50;;;;;;;;114678;1202;24866;-68
2022/11/13 02:38:01;;;;;;;;;21.00;19.00;;;;;;;;114714;1204;24890;-69
2022/11/13 02:40:31;;;;;;;;;22.50;21.00;;;;;;;;114634;1205;25567;-67
2022/11/13 02:43:01;;;;;;;;;20.50;19.50;;;;;;;;114775;1199;25520;-68
2022/11/13 02:45:30;;;;;;;;;21.00;19.00;;;;;;;;114803;1206;25332;-67
2022/11/13 02:47:59;;;;;;;;;19.00;17.00;;;;;;;;114751;1206;25153;-66
2022/11/13 02:50:28;;;;;;;;;20.00;15.50;;;;;;;;114761;1197;24808;-68
2022/11/13 02:52:56;;;;;;;;;20.00;18.33;;;;;;;;114779;1205;25646;-67
2022/11/13 02:55:25;;;;;;;;;22.00;18.50;;;;;;;;114777;1202;24967;-67
2022/11/13 02:57:53;;;;;;;;;18.00;18.00;;;;;;;;114822;1203;25545;-66
2022/11/13 03:00:21;;;;;;;;;18.50;17.00;;;;;;;;114744;1209;24927;-67
2022/11/13 03:02:50;;;;;;;;;24.00;17.00;;;;;;;;114735;1206;25393;-67
2022/11/13 03:05:18;;;;;;;;;21.00;18.00;;;;;;;;114788;1206;26435;-66
2022/11/13 03:07:46;;;;;;;;;20.00;17.50;;;;;;;;114841;1209;24770;-66
2022/11/13 03:10:15;;;;;;;;;13.50;13.50;;;;;;;;114772;1206;25420;-66
2022/11/13 03:12:43;;;;;;;;;17.50;15.50;;;;;;;;114795;1202;25482;-66
2022/11/13 03:15:12;;;;;;;;;18.00;15.50;;;;;;;;114798;1206;26325;-66
2022/11/13 03:17:41;;;;;;;;;14.00;10.50;;;;;;;;114833;1199;24687;-66
2022/11/13 03:20:09;;;;;;;;;20.00;16.00;;;;;;;;114851;1204;25478;-68
2022/11/13 03:22:37;;;;;;;;;17.00;14.50;;;;;;;;114855;1206;25477;-66
2022/11/13 03:25:06;;;;;;;;;22.00;18.00;;;;;;;;114891;1200;24777;-67
2022/11/13 03:27:37;;;;;;;;;22.50;20.50;;;;;;;;114894;1196;24894;-65
2022/11/13 03:30:07;;;;;;;;;17.50;17.00;;;;;;;;114920;1206;25331;-66
2022/11/13 03:32:35;;;;;;;;;19.00;18.00;;;;;;;;114923;1208;25591;-65
2022/11/13 03:35:05;;;;;;;;;19.00;18.00;;;;;;;;114911;1200;25184;-66
2022/11/13 03:37:33;;;;;;;;;19.50;15.50;;;;;;;;114882;1197;25372;-66
2022/11/13 03:40:01;;;;;;;;;19.00;17.00;;;;;;;;114912;1207;25538;-65
2022/11/13 03:42:30;;;;;;;;;18.50;18.50;;;;;;;;114905;1200;25021;-65
2022/11/13 03:44:58;;;;;;;;;18.00;17.00;;;;;;;;114940;1205;25395;-65
2022/11/13 03:47:27;;;;;;;;;17.00;14.00;;;;;;;;114847;1209;24926;-66
2022/11/13 03:49:55;;;;;;;;;18.00;13.00;;;;;;;;114882;1197;24958;-66
2022/11/13 03:52:23;;;;;;;;;19.50;16.50;;;;;;;;114843;1208;25649;-65
2022/11/13 03:54:52;;;;;;;;;15.00;14.33;;;;;;;;114864;1206;25531;-65
2022/11/13 03:57:20;;;;;;;;;19.00;17.00;;;;;;;;114869;1206;25104;-65
2022/11/13 03:59:49;;;;;;;;;20.00;18.00;;;;;;;;114912;1196;25393;-66
2022/11/13 04:02:17;;;;;;;;;17.00;16.00;;;;;;;;114936;1203;26394;-66
2022/11/13 04:04:45;;;;;;;;;14.00;14.00;;;;;;;;114905;1197;24904;-66
2022/11/13 04:07:14;;;;;;;;;18.00;15.50;;;;;;;;114824;1203;24887;-66
2022/11/13 04:09:42;;;;;;;;;22.50;17.00;;;;;;;;114909;1206;24895;-65
2022/11/13 04:12:11;;;;;;;;;21.00;17.00;;;;;;;;114874;1205;24835;-65
2022/11/13 04:14:39;;;;;;;;;14.50;13.50;;;;;;;;114811;1208;25036;-66
2022/11/13 04:17:07;;;;;;;;;18.00;15.00;;;;;;;;114797;1200;25369;-65
2022/11/13 04:19:36;;;;;;;;;23.00;17.00;;;;;;;;114776;1206;25457;-65
2022/11/13 04:22:04;;;;;;;;;18.00;16.50;;;;;;;;114892;1208;25359;-65
2022/11/13 04:24:32;;;;;;;;;22.00;17.00;;;;;;;;114905;1202;25503;-65
2022/11/13 04:27:01;;;;;;;;;18.00;14.00;;;;;;;;114898;1203;25141;-65
2022/11/13 04:29:29;;;;;;;;;15.00;15.00;;;;;;;;114910;1205;25552;-65
2022/11/13 04:31:57;;;;;;;;;15.00;12.00;;;;;;;;114876;1206;24771;-65
2022/11/13 04:34:26;;;;;;;;;17.00;15.67;;;;;;;;114888;1208;25262;-65
2022/11/13 04:36:54;;;;;;;;;18.00;16.00;;;;;;;;114889;1199;24879;-66
2022/11/13 04:39:23;;;;;;;;;17.50;15.00;;;;;;;;114903;1203;25042;-65
2022/11/13 04:44:38;;;;;;;;;15.00;15.00;;;;;;;;114875;1208;25138;-67
2022/11/13 04:47:07;;;;;;;;;14.50;14.00;;;;;;;;114834;1206;25545;-66
2022/11/13 04:49:35;;;;;;;;;16.00;14.00;;;;;;;;114755;1206;25481;-64
2022/11/13 04:52:04;;;;;;;;;18.00;12.50;;;;;;;;114783;1203;25650;-66
2022/11/13 04:54:32;;;;;;;;;14.50;14.00;;;;;;;;114782;1200;25746;-66
2022/11/13 04:57:00;;;;;;;;;15.00;15.00;;;;;;;;114860;1208;25183;-67
2022/11/13 04:59:29;;;;;;;;;18.00;16.00;;;;;;;;114891;1206;24821;-66
2022/11/13 05:01:57;;;;;;;;;19.00;16.50;;;;;;;;114839;1205;25837;-66
2022/11/13 05:04:26;;;;;;;;;14.00;13.00;;;;;;;;114792;1204;25609;-65
2022/11/13 05:06:54;;;;;;;;;18.00;13.00;;;;;;;;114934;1199;25469;-66
2022/11/13 05:09:23;;;;;;;;;20.00;17.00;;;;;;;;114872;1206;24802;-66
2022/11/13 05:11:51;;;;;;;;;17.00;15.00;;;;;;;;114854;1206;25497;-67
2022/11/13 05:14:20;;;;;;;;;16.00;14.00;;;;;;;;114869;1201;24947;-65
2022/11/13 05:16:49;;;;;;;;;14.00;12.00;;;;;;;;114871;1206;25882;-65
2022/11/13 05:19:17;;;;;;;;;18.50;14.00;;;;;;;;114704;1203;24823;-67
2022/11/13 05:21:46;;;;;;;;;14.00;12.00;;;;;;;;114894;1202;25077;-72
2022/11/13 05:24:14;;;;;;;;;18.50;14.50;;;;;;;;114823;1206;25271;-72
2022/11/13 05:26:42;;;;;;;;;14.00;14.00;;;;;;;;114904;1206;24884;-67
2022/11/13 05:29:11;;;;;;;;;15.50;15.50;;;;;;;;114894;1204;25234;-65
2022/11/13 05:31:39;;;;;;;;;13.00;12.00;;;;;;;;114926;1200;24796;-65
2022/11/13 05:34:07;;;;;;;;;16.00;11.00;;;;;;;;114787;1206;25095;-65
2022/11/13 05:36:36;;;;;;;;;13.67;13.00;;;;;;;;114864;1193;25183;-66
2022/11/13 05:39:05;;;;;;;;;13.00;10.00;;;;;;;;114701;1206;24810;-66
2022/11/13 05:41:33;;;;;;;;;13.00;13.00;;;;;;;;114871;1200;25509;-66
2022/11/13 05:44:01;;;;;;;;;14.00;14.00;;;;;;;;114936;1206;26083;-66
2022/11/13 05:46:30;;;;;;;;;13.50;13.50;;;;;;;;114892;1206;25482;-66
2022/11/13 05:49:00;;;;;;;;;13.50;11.50;;;;;;;;114911;1196;25497;-66
2022/11/13 05:51:30;;;;;;;;;16.00;16.00;;;;;;;;114917;1198;25742;-65
2022/11/13 05:53:58;;;;;;;;;;;;;;;;;;114891;1200;25220;-66
2022/11/13 05:56:30;;;;;;;;;16.67;15.00;;;;;;;;114876;1206;24909;-65
2022/11/13 05:58:59;;;;;;;;;16.00;13.00;;;;;;;;114911;1203;25288;-67
2022/11/13 06:01:27;;;;;;;;;;;;;;;;;;114843;1208;25305;-66
2022/11/13 06:03:57;;;;;;;;;12.00;12.00;;;;;;;;114885;1207;25026;-65
2022/11/13 06:06:27;;;;;;;;;21.00;16.00;;;;;;;;114810;1197;25405;-65
2022/11/13 06:08:57;;;;;;;;;13.50;13.50;;;;;;;;114891;1201;25934;-66
2022/11/13 06:11:27;;;;;;;;;13.00;11.50;;;;;;;;114830;1206;24971;-66
2022/11/13 06:13:57;;;;;;;;;16.50;16.00;;;;;;;;114897;1200;25747;-66
2022/11/13 06:16:32;;;;;;;;;21.00;17.00;;;;;;;;114885;1203;25853;-65
2022/11/13 06:19:03;;;;;;;;;13.00;12.50;;;;;;;;114840;1204;25447;-66
2022/11/13 06:21:33;;;;;;;;;16.50;16.00;;;;;;;;114906;1199;26309;-66
2022/11/13 06:24:02;;;;;;;;;17.00;14.00;;;;;;;;114831;1201;24928;-66
2022/11/13 06:26:33;;;;;;;;;19.00;17.50;;;;;;;;114892;1205;25130;-66
2022/11/13 06:29:04;;;;;;;;;12.50;12.50;;;;;;;;114811;1206;25573;-66
2022/11/13 06:31:34;;;;;;;;;17.50;15.00;;;;;;;;114805;1196;25208;-66
2022/11/13 06:34:04;;;;;;;;;17.50;16.50;;;;;;;;114820;1206;25451;-65
2022/11/13 06:36:34;;;;;;;;;17.50;14.50;;;;;;;;114872;1200;25722;-66
2022/11/13 06:39:07;;;;;;;;;16.33;15.33;;;;;;;;114879;1197;25382;-66
2022/11/13 06:41:37;;;;;;;;;25.00;17.00;;;;;;;;114832;1202;24715;-66
2022/11/13 06:44:05;;;;;;;;;24.00;18.50;;;;;;;;114932;1208;24725;-66
2022/11/13 06:46:33;;;;;;;;;17.50;16.50;;;;;;;;114797;1206;25651;-65
2022/11/13 06:49:02;;;;;;;;;14.50;14.00;;;;;;;;114864;1196;25533;-66
2022/11/13 06:51:31;;;;;;;;;16.50;15.00;;;;;;;;114851;1203;24898;-66
2022/11/13 06:53:59;;;;;;;;;13.00;12.00;;;;;;;;114818;1208;25499;-66
2022/11/13 06:56:27;;;;;;;;;17.50;15.00;;;;;;;;114848;1200;25622;-64
2022/11/13 06:58:56;;;;;;;;;20.00;15.50;;;;;;;;114838;1206;24810;-66
2022/11/13 07:01:25;;;;;;;;;20.00;17.00;;;;;;;;114880;1207;25664;-66
2022/11/13 07:03:54;;;;;;;;;17.50;16.50;;;;;;;;114870;1200;25604;-66
2022/11/13 07:06:23;;;;;;;;;20.00;18.00;;;;;;;;114845;1196;25280;-66
2022/11/13 07:08:52;;;;;;;;;17.00;16.00;;;;;;;;114841;1201;25580;-66
2022/11/13 07:11:23;;;;;;;;;17.67;14.33;;;;;;;;114815;1199;25246;-65
2022/11/13 07:13:51;;;;;;;;;21.00;16.00;;;;;;;;114849;1203;25055;-66
2022/11/13 07:16:19;;;;;;;;;21.00;15.50;;;;;;;;114822;1206;24776;-65
2022/11/13 07:18:52;;;;;;;;;16.00;14.50;;;;;;;;114780;1206;25339;-66
2022/11/13 07:21:21;;;;;;;;;19.00;17.00;;;;;;;;114903;1198;25622;-67
2022/11/13 07:23:50;;;;;;;;;15.50;14.50;;;;;;;;114841;1196;25274;-67
2022/11/13 07:26:18;;;;;;;;;22.00;19.00;;;;;;;;114812;1208;24884;-66
2022/11/13 07:28:47;;;;;;;;;24.00;18.00;;;;;;;;114818;1206;26288;-65
2022/11/13 07:31:17;;;;;;;;;18.00;15.50;;;;;;;;114792;1208;25822;-65
2022/11/13 07:33:47;;;;;;;;;18.00;16.00;;;;;;;;114881;1196;25480;-65
2022/11/13 07:36:16;;;;;;;;;15.50;15.50;;;;;;;;114882;1208;25327;-65
2022/11/13 07:38:44;;;;;;;;;17.00;16.50;;;;;;;;114953;1207;24868;-66
2022/11/13 07:41:12;;;;;;;;;13.50;13.50;;;;;;;;114962;1200;25494;-65
2022/11/13 07:43:40;;;;;;;;;16.00;15.50;;;;;;;;114864;1200;25410;-65
2022/11/13 07:46:09;;;;;;;;;18.00;16.00;;;;;;;;114929;1200;24798;-65
2022/11/13 07:48:37;;;;;;;;;15.00;14.00;;;;;;;;114836;1206;24850;-66
2022/11/13 07:51:06;;;;;;;;;18.00;15.00;;;;;;;;116758;1196;25293;-67
2022/11/13 07:53:34;;;;;;;;;20.50;15.50;;;;;;;;115257;1199;25214;-68
2022/11/13 07:56:04;;;;;;;;;15.00;15.00;;;;;;;;116780;1199;27222;-68
2022/11/13 07:58:32;;;;;;;;;17.50;16.50;;;;;;;;116730;1200;25434;-68
2022/11/13 08:01:04;;;;;;;;;17.00;14.00;;;;;;;;116792;1207;25388;-68
2022/11/13 08:03:33;;;;;;;;;14.00;14.00;;;;;;;;114727;1208;25291;-69
2022/11/13 08:06:04;;;;;;;;;18.50;16.50;;;;;;;;114859;1208;25214;-68
2022/11/13 08:08:33;;;;;;;;;20.00;17.00;;;;;;;;114895;1199;25500;-68
2022/11/13 08:11:06;;;;;;;;;27.33;24.00;;;;;;;;114833;1205;25273;-69
2022/11/13 08:13:35;;;;;;;;;28.00;24.00;;;;;;;;114898;1200;24914;-69
2022/11/13 08:16:04;;;;;;;;;32.50;28.50;;;;;;;;114762;1207;25029;-71
2022/11/13 08:18:32;;;;;;;;;41.00;31.50;;;;;;;;114876;1206;25356;-68
2022/11/13 08:21:01;;;;;;;;;33.67;29.33;;;;;;;;114882;1196;25138;-69
2022/11/13 08:23:30;;;;;;;;;36.50;30.00;;;;;;;;114772;1204;25040;-69
2022/11/13 08:26:03;;;;;;;;;37.00;31.00;;;;;;;;114824;1206;25612;-69
2022/11/13 08:28:32;;;;;;;;;39.00;32.33;;;;;;;;114829;1204;25457;-70
2022/11/13 08:31:01;;;;;;;;;36.00;32.50;;;;;;;;114876;1203;25265;-70
2022/11/13 08:33:30;;;;;;;;;40.00;35.00;;;;;;;;114885;1203;25539;-69
2022/11/13 08:35:59;;;;;;;;;48.00;36.00;;;;;;;;114816;1199;25265;-69
2022/11/13 08:38:27;;;;;;;;;35.00;31.00;;;;;;;;114789;1200;25211;-69
2022/11/13 08:40:58;;;;;;;;;46.00;33.00;;;;;;;;114712;1206;24812;-70
2022/11/13 08:43:31;;;;;;;;;40.00;33.00;;;;;;;;114802;1207;24874;-68
2022/11/13 08:45:59;;;;;;;;;42.00;34.00;;;;;;;;114819;1199;25378;-68
2022/11/13 08:48:28;;;;;;;;;47.00;36.00;;;;;;;;114771;1203;25788;-68
2022/11/13 08:50:57;;;;;;;;;47.50;36.50;;;;;;;;114828;1206;24863;-71
2022/11/13 08:53:26;;;;;;;;;45.50;36.50;;;;;;;;114767;1200;24775;-68
2022/11/13 08:55:54;;;;;;;;;47.00;36.00;;;;;;;;114831;1203;25238;-69
2022/11/13 08:58:22;;;;;;;;;53.00;40.00;;;;;;;;114827;1208;24747;-68
2022/11/13 09:00:51;;;;;;;;;49.00;39.00;;;;;;;;114833;1203;24844;-68
2022/11/13 09:03:19;;;;;;;;;51.00;40.50;;;;;;;;114880;1205;25112;-63
2022/11/13 09:05:48;;;;;;;;;47.00;34.00;;;;;;;;114905;1206;24813;-68
2022/11/13 09:08:16;;;;;;;;;53.00;36.50;;;;;;;;114919;1208;25397;-68
2022/11/13 09:10:44;;;;;;;;;48.00;38.00;;;;;;;;114925;1203;25653;-67
2022/11/13 09:13:13;;;;;;;;;38.50;32.50;;;;;;;;114882;1196;25615;-67
2022/11/13 09:15:41;;;;;;;;;43.00;35.50;;;;;;;;114863;1196;25138;-64
2022/11/13 09:18:10;;;;;;;;;45.00;36.50;;;;;;;;114869;1202;25005;-66
2022/11/13 09:20:38;;;;;;;;;46.50;35.00;;;;;;;;114865;1206;24810;-64
2022/11/13 09:23:08;;;;;;;;;45.00;34.00;;;;;;;;114794;1203;25667;-65
2022/11/13 09:25:36;;;;;;;;;47.50;35.00;;;;;;;;114845;1205;24971;-66
2022/11/13 09:28:06;;;;;;;;;45.00;33.50;;;;;;;;114766;1205;25944;-65
2022/11/13 09:30:37;;;;;;;;;51.00;38.00;;;;;;;;114853;1200;24792;-65
2022/11/13 09:37:19;;;;;;;;;41.00;34.00;;;;;;;;114835;1203;25644;-64
2022/11/13 09:39:47;;;;;;;;;44.50;36.00;;;;;;;;114895;1203;25636;-62
2022/11/13 09:42:25;;;;;;;;;52.50;36.00;;;;;;;;114848;1200;25506;-61
2022/11/13 09:44:59;;;;;;;;;45.50;33.50;;;;;;;;114830;1203;25247;-62
2022/11/13 09:47:34;;;;;;;;;53.50;35.50;;;;;;;;114796;1196;25494;-62
2022/11/13 09:50:22;;;;;;;;;48.50;36.00;;;;;;;;114857;1203;25703;-64
2022/11/13 09:52:50;;;;;;;;;45.00;36.00;;;;;;;;114827;1204;26324;-63
2022/11/13 09:55:23;;;;;;;;;41.50;31.00;;;;;;;;114728;1209;25528;-65
2022/11/13 09:58:06;;;;;;;;;47.50;36.50;;;;;;;;114866;1201;25552;-65
2022/11/13 10:00:35;;;;;;;;;40.50;32.00;;;;;;;;114768;1206;25249;-64
2022/11/13 10:03:37;;;;;;;;;40.00;33.50;;;;;;;;114716;1202;25154;-64
2022/11/13 10:06:46;;;;;;;;;28.33;21.33;;;;;;;;114840;1204;24737;-64
2022/11/13 10:09:54;;;;;;;;;29.00;25.00;;;;;;;;114836;1200;25647;-64
2022/11/13 10:12:22;;;;;;;;;42.50;33.00;;;;;;;;114792;1205;25043;-67
2022/11/13 10:14:52;;;;;;;;;44.00;36.00;;;;;;;;114759;1205;25298;-66
2022/11/13 10:17:31;;;;;;;;;43.00;35.00;;;;;;;;114776;1200;25684;-65
2022/11/13 10:20:03;;;;;;;;;42.33;33.33;;;;;;;;114784;1202;24915;-67
2022/11/13 10:22:40;;;;;;;;;46.00;37.00;;;;;;;;114831;1206;25536;-68
2022/11/13 10:25:16;;;;;;;;;49.00;36.00;;;;;;;;114910;1208;24774;-70
2022/11/13 10:27:53;;;;;;;;;45.00;33.00;;;;;;;;114855;1206;25611;-73
2022/11/13 10:30:22;;;;;;;;;54.00;37.00;;;;;;;;114855;1203;25543;-70
2022/11/13 10:32:51;;;;;;;;;42.50;35.50;;;;;;;;114943;1206;25270;-76
2022/11/13 10:35:44;;;;;;;;;41.50;35.00;;;;;;;;114923;1202;25896;-65
2022/11/13 10:38:19;;;;;;;;;42.00;35.00;;;;;;;;114868;1207;25093;-69
2022/11/13 10:40:48;;;;;;;;;47.67;36.00;;;;;;;;114845;1201;24954;-68
2022/11/13 10:43:22;;;;;;;;;43.50;34.00;;;;;;;;114762;1208;25659;-66
2022/11/13 10:45:58;;;;;;;;;40.00;35.00;;;;;;;;114793;1200;24844;-68
2022/11/13 10:48:32;;;;;;;;;46.00;38.00;;;;;;;;114856;1208;25110;-68
2022/11/13 10:51:04;;;;;;;;;44.00;33.00;;;;;;;;114661;1206;25163;-63
2022/11/13 10:53:41;;;;;;;;;34.00;33.00;;;;;;;;114727;1204;26015;-68
2022/11/13 10:56:24;;;;;;;;;44.50;33.00;;;;;;;;114746;1199;25285;-67
2022/11/13 10:59:21;;;;;;;;;51.50;39.00;;;;;;;;114725;1200;25575;-68
2022/11/13 11:01:50;;;;;;;;;37.00;31.00;;;;;;;;114726;1203;25402;-69
2022/11/13 11:04:28;;;;;;;;;33.00;28.00;;;;;;;;114722;1203;24683;-68
2022/11/13 11:07:10;;;;;;;;;42.50;31.00;;;;;;;;114694;1200;25172;-67
2022/11/13 11:09:49;;;;;;;;;34.00;31.00;;;;;;;;114802;1200;24839;-65
2022/11/13 11:12:22;;;;;;;;;41.00;33.50;;;;;;;;114751;1208;24912;-70
2022/11/13 11:14:57;;;;;;;;;38.00;33.00;;;;;;;;114766;1205;24909;-71
2022/11/13 11:17:49;;;;;;;;;42.00;35.00;;;;;;;;114795;1199;25098;-69
2022/11/13 11:20:47;;;;;;;;;41.00;32.67;;;;;;;;114813;1203;26374;-69
2022/11/13 11:23:41;;;;;;;;;40.00;33.00;;;;;;;;114839;1204;25711;-68
2022/11/13 11:26:37;;;;;;;;;36.50;31.50;;;;;;;;114817;1199;24854;-76
2022/11/13 11:29:18;;;;;;;;;33.50;28.50;;;;;;;;114821;1204;25422;-75
2022/11/13 11:31:53;;;;;;;;;45.50;36.00;;;;;;;;114808;1200;24969;-73
2022/11/13 11:34:29;;;;;;;;;45.00;33.00;;;;;;;;114832;1202;24810;-71
2022/11/13 11:37:19;;;;;;;;;32.00;29.00;;;;;;;;114862;1200;25593;-68
2022/11/13 11:39:50;;;;;;;;;36.50;30.00;;;;;;;;114761;1200;25260;-70
2022/11/13 11:42:28;;;;;;;;;37.00;30.67;;;;;;;;114814;1200;25084;-70
2022/11/13 11:45:01;;;;;;;;;36.50;33.00;;;;;;;;114712;1203;24821;-71
2022/11/13 11:47:29;;;;;;;;;33.00;28.50;;;;;;;;114789;1200;25246;-70
2022/11/13 11:49:58;;;;;;;;;33.00;30.00;;;;;;;;114682;1203;24952;-70
2022/11/13 11:52:43;;;;;;;;;40.00;33.00;;;;;;;;114740;1200;24851;-66
2022/11/13 11:55:17;;;;;;;;;38.00;31.00;;;;;;;;114883;1199;24983;-72
2022/11/13 11:57:49;;;;;;;;;32.00;28.00;;;;;;;;114843;1203;24694;-71
2022/11/13 12:00:19;;;;;;;;;37.00;31.00;;;;;;;;114744;1206;24948;-77
2022/11/13 12:03:25;;;;;;;;;23.00;16.00;;;;;;;;114821;1202;25614;-66
2022/11/13 12:06:14;;;;;;;;;39.00;30.00;;;;;;;;114780;1199;25443;-67
2022/11/13 12:08:45;;;;;;;;;41.00;32.50;;;;;;;;114913;1208;25137;-74
2022/11/13 12:11:21;;;;;;;;;36.00;30.00;;;;;;;;114746;1196;25434;-74
2022/11/13 12:14:11;;;;;;;;;42.00;31.00;;;;;;;;114679;1203;26137;-67
2022/11/13 12:16:51;;;;;;;;;41.50;30.50;;;;;;;;114751;1203;25567;-67
2022/11/13 12:19:53;;;;;;;;;30.50;29.50;;;;;;;;114738;1204;24869;-70
2022/11/13 12:22:38;;;;;;;;;38.00;32.00;;;;;;;;114815;1208;24977;-69
2022/11/13 12:25:18;;;;;;;;;33.00;29.50;;;;;;;;114842;1206;25275;-67
2022/11/13 12:27:52;;;;;;;;;30.50;26.50;;;;;;;;114911;1205;25631;-70
2022/11/13 12:35:16;;;;;;;;;35.50;28.50;;;;;;;;114784;1206;25335;-71
2022/11/13 12:42:21;;;;;;;;;34.00;26.00;;;;;;;;114797;1205;25557;-72
2022/11/13 12:45:24;;;;;;;;;30.00;27.50;;;;;;;;114775;1200;24802;-67
2022/11/13 12:47:53;;;;;;;;;36.50;27.50;;;;;;;;114801;1200;25253;-70
2022/11/13 12:50:27;;;;;;;;;32.50;28.00;;;;;;;;114810;1200;25029;-67
2022/11/13 12:53:07;;;;;;;;;38.00;31.00;;;;;;;;114879;1200;24844;-68
2022/11/13 12:55:38;;;;;;;;;28.00;24.00;;;;;;;;114834;1200;25043;-75
2022/11/13 12:58:23;;;;;;;;;32.00;28.50;;;;;;;;114772;1203;25417;-74
2022/11/13 13:00:54;;;;;;;;;38.00;31.00;;;;;;;;114736;1208;25506;-72
2022/11/13 13:03:38;;;;;;;;;38.00;30.00;;;;;;;;114788;1200;24973;-71
2022/11/13 13:06:38;;;;;;;;;33.00;29.67;;;;;;;;114718;1195;25121;-68
2022/11/13 13:09:44;;;;;;;;;31.00;26.00;;;;;;;;114745;1206;24674;-70
2022/11/13 13:12:21;;;;;;;;;49.00;35.50;;;;;;;;114802;1196;24837;-65
2022/11/13 13:14:59;;;;;;;;;35.67;30.33;;;;;;;;114804;1205;25510;-65
2022/11/13 13:17:27;;;;;;;;;29.00;28.00;;;;;;;;114836;1208;24897;-64
2022/11/13 13:20:23;;;;;;;;;34.00;31.00;;;;;;;;114801;1200;24765;-64
2022/11/13 13:22:57;;;;;;;;;40.00;31.00;;;;;;;;114794;1202;24852;-62
2022/11/13 13:25:29;;;;;;;;;33.00;30.00;;;;;;;;114919;1200;25912;-61
2022/11/13 13:28:24;;;;;;;;;29.00;27.00;;;;;;;;114844;1202;25018;-62
2022/11/13 13:31:11;;;;;;;;;40.50;31.50;;;;;;;;114858;1206;25533;-62
2022/11/13 13:33:55;;;;;;;;;41.00;35.00;;;;;;;;114735;1203;25612;-62
2022/11/13 13:36:42;;;;;;;;;41.50;33.00;;;;;;;;114872;1208;25422;-63
2022/11/13 13:39:13;;;;;;;;;34.00;30.00;;;;;;;;114766;1200;25029;-71
2022/11/13 13:42:19;;;;;;;;;36.00;30.50;;;;;;;;114872;1206;24899;-68
2022/11/13 13:45:30;;;;;;;;;33.00;28.00;;;;;;;;114870;1207;25685;-69
2022/11/13 13:48:00;;;;;;;;;35.00;31.00;;;;;;;;114881;1200;25114;-69
2022/11/13 13:50:34;;;;;;;;;34.00;30.00;;;;;;;;114797;1202;25604;-70
2022/11/13 13:53:03;;;;;;;;;38.00;28.00;;;;;;;;114923;1203;24701;-68
2022/11/13 13:55:35;;;;;;;;;36.67;28.00;;;;;;;;114822;1196;25444;-75
2022/11/13 13:58:09;;;;;;;;;27.00;27.00;;;;;;;;114838;1200;25368;-75
2022/11/13 14:00:37;;;;;;;;;29.00;27.00;;;;;;;;114767;1200;25516;-78
2022/11/13 14:03:28;;;;;;;;;37.67;28.33;;;;;;;;114878;1200;24947;-78
2022/11/13 14:06:08;;;;;;;;;35.00;30.00;;;;;;;;114838;1200;25192;-76
2022/11/13 14:08:36;;;;;;;;;29.00;24.50;;;;;;;;114884;1204;25585;-77
2022/11/13 14:11:28;;;;;;;;;33.67;29.67;;;;;;;;114768;1200;25290;-73
2022/11/13 14:14:08;;;;;;;;;28.00;25.00;;;;;;;;114730;1204;25028;-67
2022/11/13 14:17:06;;;;;;;;;32.00;27.00;;;;;;;;114748;1200;25186;-76
2022/11/13 14:19:34;;;;;;;;;28.50;26.50;;;;;;;;114656;1206;25701;-72
2022/11/13 14:22:05;;;;;;;;;27.00;25.00;;;;;;;;114844;1200;25395;-67
2022/11/13 14:24:47;;;;;;;;;24.00;22.00;;;;;;;;114790;1199;24812;-67
2022/11/13 14:27:19;;;;;;;;;33.00;29.00;;;;;;;;114734;1202;25612;-67
2022/11/13 14:29:54;;;;;;;;;30.00;23.00;;;;;;;;114980;1203;25117;-67
2022/11/13 14:32:31;;;;;;;;;29.00;26.00;;;;;;;;116765;1200;25149;-68
2022/11/13 14:35:01;;;;;;;;;30.00;25.00;;;;;;;;115475;1206;25456;-68
2022/11/13 14:37:38;;;;;;;;;27.33;24.33;;;;;;;;114885;1199;25637;-67
2022/11/13 14:40:22;;;;;;;;;26.00;24.00;;;;;;;;114877;1201;25401;-68
2022/11/13 14:43:04;;;;;;;;;24.00;22.00;;;;;;;;114898;1206;24830;-68
2022/11/13 14:45:33;;;;;;;;;21.00;21.00;;;;;;;;114888;1203;25451;-68
2022/11/13 14:48:18;;;;;;;;;24.50;20.00;;;;;;;;114888;1198;25288;-69
2022/11/13 14:50:53;;;;;;;;;23.50;21.00;;;;;;;;114897;1207;24832;-67
2022/11/13 14:53:36;;;;;;;;;22.00;17.00;;;;;;;;114808;1206;25829;-67
2022/11/13 14:56:10;;;;;;;;;31.50;20.50;;;;;;;;114833;1200;24781;-68